Tripoli, Iowa
Current Conditions -  °F | °C
As of 6:15 PM on Wednesday 28 Jan 2015 (Local Time) from KOLZ Reporting Station
Broken Clouds Broken Clouds  
Wind Chill: 27°   Ceiling: 1600
Heat Index: 34°   Visibility: 10mi
Dew Point: 30°   Wind: 8mph
Humidity: 87%   Direction: 120°ESE
Pressure: 29.82"   Gusts: NA
Location:  42.81°N, 92.26°W
Report Text: KOLZ 290015Z AUTO 12007KT 10SM BKN016 BKN020 BKN210 01/M01 A2982 RMK AO2
Loading
Personal Weather Stations






























Interactive Weather Map New forecast layout! Learn more

10-Day Weather Forecast

Advertisements
Track Severe Weather on mobile